sensor_id;sensor_type;location;lat;lon;timestamp;pressure;altitude;pressure_sealevel;temperature;humidity
30819;BME280;17546;42.674;23.284;2022-08-24T00:01:11;94515.78;;;26.93;50.63
30819;BME280;17546;42.674;23.284;2022-08-24T00:03:38;94512.19;;;26.92;50.50
30819;BME280;17546;42.674;23.284;2022-08-24T00:06:05;94510.69;;;26.91;50.07
30819;BME280;17546;42.674;23.284;2022-08-24T00:08:32;94515.25;;;26.85;50.32
30819;BME280;17546;42.674;23.284;2022-08-24T00:10:58;94515.50;;;26.89;49.95
30819;BME280;17546;42.674;23.284;2022-08-24T00:13:27;94519.63;;;26.97;50.17
30819;BME280;17546;42.674;23.284;2022-08-24T00:15:54;94525.88;;;26.84;50.70
30819;BME280;17546;42.674;23.284;2022-08-24T00:18:19;94518.47;;;26.79;50.58
30819;BME280;17546;42.674;23.284;2022-08-24T00:20:45;94535.69;;;26.50;51.58
30819;BME280;17546;42.674;23.284;2022-08-24T00:23:13;94529.75;;;26.46;51.18
30819;BME280;17546;42.674;23.284;2022-08-24T00:25:38;94535.09;;;26.51;51.08
30819;BME280;17546;42.674;23.284;2022-08-24T00:28:04;94533.22;;;26.44;51.27
30819;BME280;17546;42.674;23.284;2022-08-24T00:30:30;94538.06;;;26.32;51.99
30819;BME280;17546;42.674;23.284;2022-08-24T00:32:56;94545.63;;;26.39;51.60
30819;BME280;17546;42.674;23.284;2022-08-24T00:35:22;94546.31;;;26.28;51.65
30819;BME280;17546;42.674;23.284;2022-08-24T00:37:50;94538.41;;;26.26;51.84
30819;BME280;17546;42.674;23.284;2022-08-24T00:40:29;94549.69;;;26.36;51.78
30819;BME280;17546;42.674;23.284;2022-08-24T00:42:56;94545.16;;;26.43;51.64
30819;BME280;17546;42.674;23.284;2022-08-24T00:45:24;94540.50;;;26.47;52.04
30819;BME280;17546;42.674;23.284;2022-08-24T00:47:56;94538.88;;;26.23;52.73
30819;BME280;17546;42.674;23.284;2022-08-24T00:50:39;94532.88;;;26.28;52.49
30819;BME280;17546;42.674;23.284;2022-08-24T00:53:09;94546.84;;;26.36;52.17
30819;BME280;17546;42.674;23.284;2022-08-24T00:55:40;94538.19;;;26.34;52.38
30819;BME280;17546;42.674;23.284;2022-08-24T00:58:11;94542.00;;;26.48;52.31
30819;BME280;17546;42.674;23.284;2022-08-24T01:00:42;94544.69;;;26.46;52.30
30819;BME280;17546;42.674;23.284;2022-08-24T01:03:09;94547.28;;;26.42;52.47
30819;BME280;17546;42.674;23.284;2022-08-24T01:05:37;94551.13;;;26.47;52.26
30819;BME280;17546;42.674;23.284;2022-08-24T01:08:05;94555.97;;;26.34;52.37
30819;BME280;17546;42.674;23.284;2022-08-24T01:10:36;94551.25;;;26.27;52.79
30819;BME280;17546;42.674;23.284;2022-08-24T01:13:04;94558.56;;;25.99;53.58
30819;BME280;17546;42.674;23.284;2022-08-24T01:15:37;94550.91;;;26.11;53.21
30819;BME280;17546;42.674;23.284;2022-08-24T01:18:05;94558.28;;;26.26;52.83
30819;BME280;17546;42.674;23.284;2022-08-24T01:21:03;94568.09;;;26.35;52.65
30819;BME280;17546;42.674;23.284;2022-08-24T01:26:04;94572.28;;;26.34;52.45
30819;BME280;17546;42.674;23.284;2022-08-24T01:28:30;94574.69;;;26.28;52.69
30819;BME280;17546;42.674;23.284;2022-08-24T01:30:55;94578.09;;;26.36;52.32
30819;BME280;17546;42.674;23.284;2022-08-24T01:33:23;94578.34;;;26.40;52.58
30819;BME280;17546;42.674;23.284;2022-08-24T01:35:53;94583.09;;;26.47;52.01
30819;BME280;17546;42.674;23.284;2022-08-24T01:38:21;94583.50;;;26.53;51.72
30819;BME280;17546;42.674;23.284;2022-08-24T01:40:53;94589.66;;;26.50;52.23
30819;BME280;17546;42.674;23.284;2022-08-24T01:43:22;94590.66;;;26.54;52.11
30819;BME280;17546;42.674;23.284;2022-08-24T01:45:48;94585.28;;;26.58;51.63
30819;BME280;17546;42.674;23.284;2022-08-24T01:48:14;94574.38;;;26.55;52.23
30819;BME280;17546;42.674;23.284;2022-08-24T01:50:40;94581.38;;;26.64;51.92
30819;BME280;17546;42.674;23.284;2022-08-24T01:53:06;94571.50;;;26.65;51.78
30819;BME280;17546;42.674;23.284;2022-08-24T01:55:32;94575.94;;;26.68;51.88
30819;BME280;17546;42.674;23.284;2022-08-24T01:57:58;94577.56;;;26.71;51.35
30819;BME280;17546;42.674;23.284;2022-08-24T02:00:24;94578.78;;;26.68;51.68
30819;BME280;17546;42.674;23.284;2022-08-24T02:02:51;94578.91;;;26.70;51.29
30819;BME280;17546;42.674;23.284;2022-08-24T02:05:17;94577.16;;;26.65;51.85
30819;BME280;17546;42.674;23.284;2022-08-24T02:07:42;94595.31;;;26.59;51.46
30819;BME280;17546;42.674;23.284;2022-08-24T02:10:13;94599.91;;;26.65;51.70
30819;BME280;17546;42.674;23.284;2022-08-24T02:12:41;94594.44;;;26.57;51.87
30819;BME280;17546;42.674;23.284;2022-08-24T02:15:34;94598.28;;;26.62;51.57
30819;BME280;17546;42.674;23.284;2022-08-24T02:18:05;94600.34;;;26.61;51.38
30819;BME280;17546;42.674;23.284;2022-08-24T02:20:31;94600.16;;;26.69;51.30
30819;BME280;17546;42.674;23.284;2022-08-24T02:22:56;94599.44;;;26.68;51.55
30819;BME280;17546;42.674;23.284;2022-08-24T02:25:23;94607.31;;;26.70;51.48
30819;BME280;17546;42.674;23.284;2022-08-24T02:27:49;94605.09;;;26.68;51.05
30819;BME280;17546;42.674;23.284;2022-08-24T02:30:16;94610.94;;;26.70;51.22
30819;BME280;17546;42.674;23.284;2022-08-24T02:32:42;94606.38;;;26.55;51.45
30819;BME280;17546;42.674;23.284;2022-08-24T02:35:08;94610.88;;;26.49;51.39
30819;BME280;17546;42.674;23.284;2022-08-24T02:37:34;94612.56;;;26.42;51.50
30819;BME280;17546;42.674;23.284;2022-08-24T02:40:00;94624.66;;;26.43;51.86
30819;BME280;17546;42.674;23.284;2022-08-24T02:42:26;94607.56;;;26.31;52.08
30819;BME280;17546;42.674;23.284;2022-08-24T02:44:51;94623.19;;;26.42;52.09
30819;BME280;17546;42.674;23.284;2022-08-24T02:47:17;94608.09;;;26.39;52.23
30819;BME280;17546;42.674;23.284;2022-08-24T02:49:44;94625.13;;;26.39;52.22
30819;BME280;17546;42.674;23.284;2022-08-24T02:52:09;94620.34;;;26.42;52.33
30819;BME280;17546;42.674;23.284;2022-08-24T02:54:35;94619.00;;;26.43;52.29
30819;BME280;17546;42.674;23.284;2022-08-24T02:57:00;94618.53;;;26.46;51.92
30819;BME280;17546;42.674;23.284;2022-08-24T02:59:26;94620.66;;;26.36;52.26
30819;BME280;17546;42.674;23.284;2022-08-24T03:01:52;94626.16;;;26.44;52.08
30819;BME280;17546;42.674;23.284;2022-08-24T03:04:18;94622.72;;;26.45;52.00
30819;BME280;17546;42.674;23.284;2022-08-24T03:06:44;94621.38;;;26.46;52.02
30819;BME280;17546;42.674;23.284;2022-08-24T03:09:10;94620.28;;;26.51;51.81
30819;BME280;17546;42.674;23.284;2022-08-24T03:11:36;94622.53;;;26.53;51.84
30819;BME280;17546;42.674;23.284;2022-08-24T03:14:01;94625.38;;;26.53;51.93
30819;BME280;17546;42.674;23.284;2022-08-24T03:16:27;94616.56;;;26.49;51.97
30819;BME280;17546;42.674;23.284;2022-08-24T03:18:53;94627.00;;;26.56;51.51
30819;BME280;17546;42.674;23.284;2022-08-24T03:21:18;94622.06;;;26.56;51.38
30819;BME280;17546;42.674;23.284;2022-08-24T03:23:45;94625.88;;;26.71;51.08
30819;BME280;17546;42.674;23.284;2022-08-24T03:26:11;94623.91;;;26.73;51.04
30819;BME280;17546;42.674;23.284;2022-08-24T03:28:36;94624.03;;;26.75;51.01
30819;BME280;17546;42.674;23.284;2022-08-24T03:31:02;94624.50;;;26.72;50.87
30819;BME280;17546;42.674;23.284;2022-08-24T03:33:28;94633.38;;;26.66;51.03
30819;BME280;17546;42.674;23.284;2022-08-24T03:35:54;94635.47;;;26.66;51.04
30819;BME280;17546;42.674;23.284;2022-08-24T03:38:19;94634.31;;;26.59;51.38
30819;BME280;17546;42.674;23.284;2022-08-24T03:40:45;94640.75;;;26.59;51.26
30819;BME280;17546;42.674;23.284;2022-08-24T03:43:11;94632.50;;;26.64;51.07
30819;BME280;17546;42.674;23.284;2022-08-24T03:45:57;94636.41;;;26.58;50.64
30819;BME280;17546;42.674;23.284;2022-08-24T03:48:22;94633.44;;;26.56;50.69
30819;BME280;17546;42.674;23.284;2022-08-24T03:50:49;94638.50;;;26.58;50.44
30819;BME280;17546;42.674;23.284;2022-08-24T03:53:15;94639.53;;;26.63;50.84
30819;BME280;17546;42.674;23.284;2022-08-24T03:55:40;94643.59;;;26.59;50.57
30819;BME280;17546;42.674;23.284;2022-08-24T03:58:06;94630.72;;;26.58;50.83
30819;BME280;17546;42.674;23.284;2022-08-24T04:00:31;94636.09;;;26.54;51.30
30819;BME280;17546;42.674;23.284;2022-08-24T04:02:56;94639.09;;;26.56;51.18
30819;BME280;17546;42.674;23.284;2022-08-24T04:05:22;94634.47;;;26.51;51.36
30819;BME280;17546;42.674;23.284;2022-08-24T04:07:47;94635.53;;;26.56;51.12
30819;BME280;17546;42.674;23.284;2022-08-24T04:10:13;94633.44;;;26.56;51.33
30819;BME280;17546;42.674;23.284;2022-08-24T04:12:38;94638.38;;;26.56;51.37
30819;BME280;17546;42.674;23.284;2022-08-24T04:15:05;94642.34;;;26.63;51.19
30819;BME280;17546;42.674;23.284;2022-08-24T04:17:31;94643.38;;;26.67;51.23
30819;BME280;17546;42.674;23.284;2022-08-24T04:19:57;94635.00;;;26.69;51.13
30819;BME280;17546;42.674;23.284;2022-08-24T04:22:25;94636.00;;;26.74;51.21
30819;BME280;17546;42.674;23.284;2022-08-24T04:24:50;94636.75;;;26.74;51.05
30819;BME280;17546;42.674;23.284;2022-08-24T04:27:16;94644.38;;;26.72;51.26
30819;BME280;17546;42.674;23.284;2022-08-24T04:29:42;94638.97;;;26.76;51.23
30819;BME280;17546;42.674;23.284;2022-08-24T04:32:08;94638.03;;;26.83;51.29
30819;BME280;17546;42.674;23.284;2022-08-24T04:34:33;94635.31;;;26.85;51.18
30819;BME280;17546;42.674;23.284;2022-08-24T04:36:59;94645.47;;;26.88;50.89
30819;BME280;17546;42.674;23.284;2022-08-24T04:39:24;94649.19;;;26.91;51.26
30819;BME280;17546;42.674;23.284;2022-08-24T04:41:50;94649.19;;;26.91;51.45
30819;BME280;17546;42.674;23.284;2022-08-24T04:44:15;94648.75;;;26.94;51.41
30819;BME280;17546;42.674;23.284;2022-08-24T04:46:41;94653.19;;;26.97;51.30
30819;BME280;17546;42.674;23.284;2022-08-24T04:49:06;94649.75;;;26.99;51.44
30819;BME280;17546;42.674;23.284;2022-08-24T04:51:32;94649.38;;;27.05;51.69
30819;BME280;17546;42.674;23.284;2022-08-24T04:53:58;94646.53;;;27.05;51.21
30819;BME280;17546;42.674;23.284;2022-08-24T04:56:24;94646.81;;;27.09;51.49
30819;BME280;17546;42.674;23.284;2022-08-24T04:58:51;94649.78;;;27.11;52.00
30819;BME280;17546;42.674;23.284;2022-08-24T05:01:19;94646.81;;;27.09;51.70
30819;BME280;17546;42.674;23.284;2022-08-24T05:03:46;94652.03;;;27.12;51.09
30819;BME280;17546;42.674;23.284;2022-08-24T05:06:14;94647.09;;;27.13;51.50
30819;BME280;17546;42.674;23.284;2022-08-24T05:08:40;94648.81;;;27.18;51.04
30819;BME280;17546;42.674;23.284;2022-08-24T05:11:07;94650.50;;;27.21;51.59
30819;BME280;17546;42.674;23.284;2022-08-24T05:13:34;94648.16;;;27.29;51.12
30819;BME280;17546;42.674;23.284;2022-08-24T05:16:00;94643.22;;;27.30;51.31
30819;BME280;17546;42.674;23.284;2022-08-24T05:18:26;94642.59;;;27.31;50.96
30819;BME280;17546;42.674;23.284;2022-08-24T05:20:54;94644.50;;;27.38;50.78
30819;BME280;17546;42.674;23.284;2022-08-24T05:23:19;94637.19;;;27.35;50.02
30819;BME280;17546;42.674;23.284;2022-08-24T05:25:45;94642.47;;;27.29;50.26
30819;BME280;17546;42.674;23.284;2022-08-24T05:28:11;94642.00;;;27.33;50.01
30819;BME280;17546;42.674;23.284;2022-08-24T05:30:37;94644.25;;;27.34;50.58
30819;BME280;17546;42.674;23.284;2022-08-24T05:33:02;94636.06;;;27.40;49.83
30819;BME280;17546;42.674;23.284;2022-08-24T05:35:28;94636.72;;;27.51;49.27
30819;BME280;17546;42.674;23.284;2022-08-24T05:37:53;94626.72;;;27.50;49.61
30819;BME280;17546;42.674;23.284;2022-08-24T05:40:19;94632.31;;;27.59;49.35
30819;BME280;17546;42.674;23.284;2022-08-24T05:42:45;94644.41;;;27.60;49.54
30819;BME280;17546;42.674;23.284;2022-08-24T05:45:11;94633.03;;;27.60;49.47
30819;BME280;17546;42.674;23.284;2022-08-24T05:47:37;94633.69;;;27.70;49.51
30819;BME280;17546;42.674;23.284;2022-08-24T05:50:03;94632.97;;;27.70;49.82
30819;BME280;17546;42.674;23.284;2022-08-24T05:52:30;94628.25;;;27.74;49.16
30819;BME280;17546;42.674;23.284;2022-08-24T05:54:57;94631.25;;;27.76;49.70
30819;BME280;17546;42.674;23.284;2022-08-24T05:57:24;94624.03;;;27.75;47.89
30819;BME280;17546;42.674;23.284;2022-08-24T05:59:50;94632.72;;;27.77;48.30
30819;BME280;17546;42.674;23.284;2022-08-24T06:02:16;94633.94;;;27.74;46.36
30819;BME280;17546;42.674;23.284;2022-08-24T06:04:43;94632.91;;;27.58;46.96
30819;BME280;17546;42.674;23.284;2022-08-24T06:07:10;94635.69;;;27.79;47.26
30819;BME280;17546;42.674;23.284;2022-08-24T06:09:36;94644.81;;;27.66;46.31
30819;BME280;17546;42.674;23.284;2022-08-24T06:12:03;94630.97;;;27.72;46.55
30819;BME280;17546;42.674;23.284;2022-08-24T06:14:28;94631.75;;;27.85;47.08
30819;BME280;17546;42.674;23.284;2022-08-24T06:16:54;94628.16;;;27.84;46.76
30819;BME280;17546;42.674;23.284;2022-08-24T06:19:19;94629.88;;;27.77;46.31
30819;BME280;17546;42.674;23.284;2022-08-24T06:21:47;94634.84;;;27.89;45.63
30819;BME280;17546;42.674;23.284;2022-08-24T06:24:14;94639.69;;;27.86;46.27
30819;BME280;17546;42.674;23.284;2022-08-24T06:26:41;94640.94;;;27.95;45.94
30819;BME280;17546;42.674;23.284;2022-08-24T06:29:25;94642.91;;;28.04;45.76
30819;BME280;17546;42.674;23.284;2022-08-24T06:31:54;94641.69;;;28.07;45.03
30819;BME280;17546;42.674;23.284;2022-08-24T06:34:21;94633.13;;;27.95;44.90
30819;BME280;17546;42.674;23.284;2022-08-24T06:36:47;94631.06;;;28.08;44.24
30819;BME280;17546;42.674;23.284;2022-08-24T06:39:12;94627.34;;;28.05;44.50
30819;BME280;17546;42.674;23.284;2022-08-24T06:41:39;94637.06;;;27.33;46.50
30819;BME280;17546;42.674;23.284;2022-08-24T06:44:06;94641.91;;;27.42;46.02
30819;BME280;17546;42.674;23.284;2022-08-24T06:46:32;94641.50;;;27.81;45.43
30819;BME280;17546;42.674;23.284;2022-08-24T06:48:57;94643.47;;;27.67;46.44
30819;BME280;17546;42.674;23.284;2022-08-24T06:51:23;94646.50;;;27.93;45.69
30819;BME280;17546;42.674;23.284;2022-08-24T06:53:50;94645.47;;;27.76;45.69
30819;BME280;17546;42.674;23.284;2022-08-24T06:56:16;94650.31;;;27.86;45.35
30819;BME280;17546;42.674;23.284;2022-08-24T06:58:43;94646.81;;;27.75;46.27
30819;BME280;17546;42.674;23.284;2022-08-24T07:01:18;94649.47;;;27.95;47.29
30819;BME280;17546;42.674;23.284;2022-08-24T07:03:44;94642.19;;;28.03;46.66
30819;BME280;17546;42.674;23.284;2022-08-24T07:06:11;94662.56;;;27.88;45.47
30819;BME280;17546;42.674;23.284;2022-08-24T07:08:38;94656.91;;;28.00;45.03
30819;BME280;17546;42.674;23.284;2022-08-24T07:11:05;94661.28;;;28.25;44.99
30819;BME280;17546;42.674;23.284;2022-08-24T07:13:32;94659.28;;;28.39;45.30
30819;BME280;17546;42.674;23.284;2022-08-24T07:15:59;94659.25;;;27.92;45.02
30819;BME280;17546;42.674;23.284;2022-08-24T07:18:25;94663.13;;;27.63;45.20
30819;BME280;17546;42.674;23.284;2022-08-24T07:20:51;94661.50;;;28.05;45.36
30819;BME280;17546;42.674;23.284;2022-08-24T07:23:17;94672.88;;;28.29;46.08
30819;BME280;17546;42.674;23.284;2022-08-24T07:25:44;94666.47;;;28.05;45.04
30819;BME280;17546;42.674;23.284;2022-08-24T07:28:13;94664.25;;;28.50;45.70
30819;BME280;17546;42.674;23.284;2022-08-24T07:30:43;94680.34;;;28.69;45.40
30819;BME280;17546;42.674;23.284;2022-08-24T07:33:08;94672.19;;;28.52;44.44
30819;BME280;17546;42.674;23.284;2022-08-24T07:35:35;94671.16;;;28.35;44.13
30819;BME280;17546;42.674;23.284;2022-08-24T07:38:02;94669.66;;;28.46;43.59
30819;BME280;17546;42.674;23.284;2022-08-24T07:40:29;94668.06;;;28.19;44.48
30819;BME280;17546;42.674;23.284;2022-08-24T07:42:55;94666.00;;;28.55;43.58
30819;BME280;17546;42.674;23.284;2022-08-24T07:45:22;94660.97;;;28.79;43.21
30819;BME280;17546;42.674;23.284;2022-08-24T07:47:49;94657.84;;;29.11;44.01
30819;BME280;17546;42.674;23.284;2022-08-24T07:50:16;94657.34;;;29.02;43.69
30819;BME280;17546;42.674;23.284;2022-08-24T07:52:43;94664.13;;;29.21;44.19
30819;BME280;17546;42.674;23.284;2022-08-24T07:55:09;94652.34;;;28.30;44.15
30819;BME280;17546;42.674;23.284;2022-08-24T07:57:37;94649.44;;;29.13;42.58
30819;BME280;17546;42.674;23.284;2022-08-24T08:00:08;94654.59;;;29.16;42.98
30819;BME280;17546;42.674;23.284;2022-08-24T08:02:36;94652.41;;;29.40;41.98
30819;BME280;17546;42.674;23.284;2022-08-24T08:05:02;94656.88;;;29.69;42.49
30819;BME280;17546;42.674;23.284;2022-08-24T08:07:27;94650.25;;;29.78;42.29
30819;BME280;17546;42.674;23.284;2022-08-24T08:09:52;94656.03;;;30.06;42.81
30819;BME280;17546;42.674;23.284;2022-08-24T08:12:18;94654.75;;;30.35;41.94
30819;BME280;17546;42.674;23.284;2022-08-24T08:14:44;94657.28;;;30.56;42.64
30819;BME280;17546;42.674;23.284;2022-08-24T08:17:10;94660.78;;;30.41;41.01
30819;BME280;17546;42.674;23.284;2022-08-24T08:19:35;94645.34;;;29.93;40.85
30819;BME280;17546;42.674;23.284;2022-08-24T08:22:01;94642.72;;;30.24;40.60
30819;BME280;17546;42.674;23.284;2022-08-24T08:24:45;94645.06;;;30.14;41.36
30819;BME280;17546;42.674;23.284;2022-08-24T08:27:12;94648.69;;;30.28;40.56
30819;BME280;17546;42.674;23.284;2022-08-24T08:29:39;94643.41;;;30.51;40.30
30819;BME280;17546;42.674;23.284;2022-08-24T08:32:06;94653.81;;;30.72;40.68
30819;BME280;17546;42.674;23.284;2022-08-24T08:34:33;94645.00;;;30.81;40.68
30819;BME280;17546;42.674;23.284;2022-08-24T08:36:58;94639.19;;;30.65;40.34
30819;BME280;17546;42.674;23.284;2022-08-24T08:39:25;94644.03;;;30.77;40.09
30819;BME280;17546;42.674;23.284;2022-08-24T08:42:18;94638.00;;;30.98;39.85
30819;BME280;17546;42.674;23.284;2022-08-24T08:48:03;94639.50;;;30.30;40.26
30819;BME280;17546;42.674;23.284;2022-08-24T08:56:08;94636.09;;;31.03;38.88
30819;BME280;17546;42.674;23.284;2022-08-24T08:59:02;94636.84;;;31.03;38.98
30819;BME280;17546;42.674;23.284;2022-08-24T09:01:59;94643.09;;;30.72;38.67
30819;BME280;17546;42.674;23.284;2022-08-24T09:04:57;94639.16;;;30.93;39.22
30819;BME280;17546;42.674;23.284;2022-08-24T09:15:52;94641.75;;;30.87;38.05
30819;BME280;17546;42.674;23.284;2022-08-24T09:18:44;94647.28;;;31.26;38.44
30819;BME280;17546;42.674;23.284;2022-08-24T09:27:26;94634.72;;;31.77;39.66
30819;BME280;17546;42.674;23.284;2022-08-24T09:30:11;94638.41;;;31.96;37.09
30819;BME280;17546;42.674;23.284;2022-08-24T09:41:19;94612.44;;;33.05;36.05
30819;BME280;17546;42.674;23.284;2022-08-24T09:44:08;94621.38;;;32.95;35.62
30819;BME280;17546;42.674;23.284;2022-08-24T10:00:23;94590.59;;;33.85;31.91
30819;BME280;17546;42.674;23.284;2022-08-24T10:02:59;94602.16;;;34.45;33.85
30819;BME280;17546;42.674;23.284;2022-08-24T10:11:09;94580.94;;;34.34;32.04
30819;BME280;17546;42.674;23.284;2022-08-24T10:16:16;94569.97;;;34.49;33.03
30819;BME280;17546;42.674;23.284;2022-08-24T10:35:07;94571.69;;;35.88;32.66
30819;BME280;17546;42.674;23.284;2022-08-24T10:52:38;94568.72;;;34.34;30.69
30819;BME280;17546;42.674;23.284;2022-08-24T10:55:40;94563.81;;;34.58;32.45
30819;BME280;17546;42.674;23.284;2022-08-24T11:00:34;94559.28;;;34.51;31.18
30819;BME280;17546;42.674;23.284;2022-08-24T11:03:12;94555.84;;;34.57;32.75
30819;BME280;17546;42.674;23.284;2022-08-24T11:05:44;94561.00;;;34.01;31.37
30819;BME280;17546;42.674;23.284;2022-08-24T11:08:29;94553.09;;;34.19;31.47
30819;BME280;17546;42.674;23.284;2022-08-24T11:11:12;94557.78;;;34.50;32.74
30819;BME280;17546;42.674;23.284;2022-08-24T11:13:56;94547.91;;;33.95;31.81
30819;BME280;17546;42.674;23.284;2022-08-24T11:16:30;94548.66;;;34.36;32.73
30819;BME280;17546;42.674;23.284;2022-08-24T11:18:59;94555.59;;;34.49;32.62
30819;BME280;17546;42.674;23.284;2022-08-24T11:21:58;94548.25;;;34.06;32.26
30819;BME280;17546;42.674;23.284;2022-08-24T11:24:42;94544.78;;;33.89;33.88
30819;BME280;17546;42.674;23.284;2022-08-24T11:37:46;94524.91;;;33.40;34.57
30819;BME280;17546;42.674;23.284;2022-08-24T11:40:14;94539.44;;;33.44;35.15
30819;BME280;17546;42.674;23.284;2022-08-24T11:48:31;94529.75;;;33.35;35.06
30819;BME280;17546;42.674;23.284;2022-08-24T11:56:56;94531.94;;;32.83;36.15
30819;BME280;17546;42.674;23.284;2022-08-24T12:01:59;94518.56;;;32.38;36.76
30819;BME280;17546;42.674;23.284;2022-08-24T12:04:45;94526.63;;;32.25;37.19
30819;BME280;17546;42.674;23.284;2022-08-24T12:14:53;94529.56;;;32.27;37.33
30819;BME280;17546;42.674;23.284;2022-08-24T12:17:32;94534.50;;;32.09;37.00
30819;BME280;17546;42.674;23.284;2022-08-24T12:20:03;94519.44;;;31.61;37.75
30819;BME280;17546;42.674;23.284;2022-08-24T12:22:30;94523.22;;;31.20;38.48
30819;BME280;17546;42.674;23.284;2022-08-24T12:24:59;94510.00;;;31.42;38.77
30819;BME280;17546;42.674;23.284;2022-08-24T12:27:47;94515.84;;;31.30;38.18
30819;BME280;17546;42.674;23.284;2022-08-24T12:30:15;94509.97;;;32.38;36.94
30819;BME280;17546;42.674;23.284;2022-08-24T12:32:45;94512.91;;;32.40;36.59
30819;BME280;17546;42.674;23.284;2022-08-24T12:35:21;94512.44;;;32.79;35.54
30819;BME280;17546;42.674;23.284;2022-08-24T12:37:54;94503.06;;;33.12;35.89
30819;BME280;17546;42.674;23.284;2022-08-24T12:40:26;94512.38;;;32.95;35.60
30819;BME280;17546;42.674;23.284;2022-08-24T12:45:43;94518.25;;;32.47;36.75
30819;BME280;17546;42.674;23.284;2022-08-24T12:48:37;94516.81;;;32.30;36.89
30819;BME280;17546;42.674;23.284;2022-08-24T12:51:20;94526.38;;;31.71;37.99
30819;BME280;17546;42.674;23.284;2022-08-24T12:53:55;94524.81;;;31.68;38.10
30819;BME280;17546;42.674;23.284;2022-08-24T12:59:26;94515.28;;;31.64;37.86
30819;BME280;17546;42.674;23.284;2022-08-24T13:02:05;94516.66;;;31.79;38.00
30819;BME280;17546;42.674;23.284;2022-08-24T13:25:52;94548.06;;;31.61;38.63
30819;BME280;17546;42.674;23.284;2022-08-24T13:33:54;94542.81;;;31.41;38.79
30819;BME280;17546;42.674;23.284;2022-08-24T13:41:58;94552.00;;;31.24;39.79
30819;BME280;17546;42.674;23.284;2022-08-24T13:47:29;94547.88;;;31.57;39.07
30819;BME280;17546;42.674;23.284;2022-08-24T14:00:51;94535.88;;;31.60;38.62
30819;BME280;17546;42.674;23.284;2022-08-24T14:05:54;94527.38;;;31.78;38.69
30819;BME280;17546;42.674;23.284;2022-08-24T14:11:35;94526.91;;;31.52;38.71
30819;BME280;17546;42.674;23.284;2022-08-24T14:25:24;94529.13;;;31.69;39.00
30819;BME280;17546;42.674;23.284;2022-08-24T14:48:47;94544.03;;;31.06;39.08
30819;BME280;17546;42.674;23.284;2022-08-24T14:57:07;94549.78;;;30.35;40.19
30819;BME280;17546;42.674;23.284;2022-08-24T14:59:55;94540.69;;;30.96;39.10
30819;BME280;17546;42.674;23.284;2022-08-24T15:08:06;94534.06;;;30.64;39.61
30819;BME280;17546;42.674;23.284;2022-08-24T15:10:56;94524.56;;;31.03;39.18
30819;BME280;17546;42.674;23.284;2022-08-24T15:13:28;94530.38;;;31.05;39.63
30819;BME280;17546;42.674;23.284;2022-08-24T15:16:09;94534.84;;;31.24;39.33
30819;BME280;17546;42.674;23.284;2022-08-24T15:29:57;94569.44;;;30.57;40.42
30819;BME280;17546;42.674;23.284;2022-08-24T15:32:26;94564.47;;;30.57;40.56
30819;BME280;17546;42.674;23.284;2022-08-24T15:35:03;94554.22;;;30.38;41.22
30819;BME280;17546;42.674;23.284;2022-08-24T15:37:33;94557.25;;;30.01;41.91
30819;BME280;17546;42.674;23.284;2022-08-24T15:40:00;94557.16;;;30.26;41.23
30819;BME280;17546;42.674;23.284;2022-08-24T15:42:28;94564.66;;;30.61;41.13
30819;BME280;17546;42.674;23.284;2022-08-24T15:44:59;94567.38;;;30.73;40.79
30819;BME280;17546;42.674;23.284;2022-08-24T15:47:29;94552.97;;;30.99;40.39
30819;BME280;17546;42.674;23.284;2022-08-24T15:50:19;94555.28;;;31.02;39.99
30819;BME280;17546;42.674;23.284;2022-08-24T15:53:23;94560.03;;;30.54;40.56
30819;BME280;17546;42.674;23.284;2022-08-24T15:55:50;94560.50;;;30.78;40.37
30819;BME280;17546;42.674;23.284;2022-08-24T15:58:29;94562.69;;;31.07;40.22
30819;BME280;17546;42.674;23.284;2022-08-24T16:01:22;94573.31;;;30.91;40.33
30819;BME280;17546;42.674;23.284;2022-08-24T16:04:11;94567.34;;;30.43;41.23
30819;BME280;17546;42.674;23.284;2022-08-24T16:06:40;94566.53;;;30.98;40.42
30819;BME280;17546;42.674;23.284;2022-08-24T16:11:44;94571.78;;;30.46;41.67
30819;BME280;17546;42.674;23.284;2022-08-24T16:14:37;94569.09;;;30.92;40.51
30819;BME280;17546;42.674;23.284;2022-08-24T16:17:27;94575.88;;;30.57;41.38
30819;BME280;17546;42.674;23.284;2022-08-24T16:20:44;94575.75;;;30.97;40.51
30819;BME280;17546;42.674;23.284;2022-08-24T16:22:54;94577.94;;;30.84;40.72
30819;BME280;17546;42.674;23.284;2022-08-24T16:25:28;94575.53;;;30.93;40.45
30819;BME280;17546;42.674;23.284;2022-08-24T16:28:04;94585.56;;;31.07;40.64
30819;BME280;17546;42.674;23.284;2022-08-24T16:30:55;94582.53;;;30.76;41.11
30819;BME280;17546;42.674;23.284;2022-08-24T16:33:43;94583.41;;;30.51;41.39
30819;BME280;17546;42.674;23.284;2022-08-24T16:36:15;94582.97;;;30.15;42.20
30819;BME280;17546;42.674;23.284;2022-08-24T16:38:48;94583.00;;;30.56;41.28
30819;BME280;17546;42.674;23.284;2022-08-24T16:41:19;94577.22;;;30.84;40.89
30819;BME280;17546;42.674;23.284;2022-08-24T16:43:46;94563.66;;;30.98;40.28
30819;BME280;17546;42.674;23.284;2022-08-24T16:46:15;94577.97;;;30.98;40.48
30819;BME280;17546;42.674;23.284;2022-08-24T16:48:42;94571.94;;;30.92;40.71
30819;BME280;17546;42.674;23.284;2022-08-24T16:51:07;94578.72;;;30.85;40.76
30819;BME280;17546;42.674;23.284;2022-08-24T16:53:33;94572.63;;;31.06;40.45
30819;BME280;17546;42.674;23.284;2022-08-24T16:56:00;94576.28;;;30.93;40.35
30819;BME280;17546;42.674;23.284;2022-08-24T16:58:32;94577.44;;;30.88;40.45
30819;BME280;17546;42.674;23.284;2022-08-24T17:00:58;94574.59;;;30.88;40.58
30819;BME280;17546;42.674;23.284;2022-08-24T17:03:24;94590.19;;;30.57;41.28